Snow/Ice From: 17-12-2017 10:00 Until: 18-12-2017 06:00 warning for: Snow/Ice Level: Yellow info button

Although rather usual in this region, locally or potentially dangerous phenomena are expected. (such as local winds, summer thunderstorms, rising streams or high waves) Be aware and pay attention to the latest weather updates, especially if you carry out activities exposed to weather or close to a stream or shoreline. 


Meteo18 Weather Cam more information Meteo18 Weather Cam


Thunder radar more information blitzortung!


warning for Snow/Ice more information rain snow radar


Visit our other weather sites:

Template documentation
and downloads

And another site



Weather Underground History page Text

Daily Summary for August 4, 2016 Units:  Metric    English   Both
« Previous Day
Next Day »
Daily Weekly Monthly Yearly Custom
  High: Low: Average:
Temperature: 21.6 °C 15.7 °C 17.8 °C
Dew Point: 17.4 °C 13.1 °C 15.3 °C
Humidity: 94 % 61 % 86 %
Wind Speed: 12.9 km/h 0.0 km/h 1.2 km/h
Wind Gust: 17.7 km/h - -
Wind:- - SW
Pressure: 1016.8 hPa 1012.8 hPa -
Precipitation: 2.3 mm    
Historical Graphs
 
 
Tabular Data for August 4, 2016
Time Temperature Dew Point Pressure Wind Wind Speed Wind Gust Humidity Rainfall Rate (Hourly)
00:02 21.6 °C 14.0 °C 1013.8 hPa Calm   6.4 km/h 62 % 0.0 mm
00:07 21.3 °C 13.5 °C 1013.8 hPa ESE 3.2 km/h 6.4 km/h 61 % 0.0 mm
00:12 20.8 °C 13.5 °C 1013.8 hPa Calm   4.8 km/h 63 % 0.0 mm
00:17 20.6 °C 13.8 °C 1013.8 hPa Calm   4.8 km/h 65 % 0.0 mm
00:22 20.7 °C 13.9 °C 1013.8 hPa SE 1.6 km/h 4.8 km/h 65 % 0.0 mm
00:27 20.6 °C 13.6 °C 1013.8 hPa Calm   4.8 km/h 64 % 0.0 mm
00:32 20.2 °C 13.4 °C 1013.8 hPa SE 1.6 km/h 4.8 km/h 65 % 0.0 mm
00:37 19.8 °C 13.5 °C 1013.8 hPa ESE 1.6 km/h 4.8 km/h 67 % 0.0 mm
00:47 19.5 °C 13.4 °C 1013.8 hPa Calm   4.8 km/h 68 % 0.0 mm
00:52 19.3 °C 13.5 °C 1013.8 hPa Calm   3.2 km/h 69 % 0.0 mm
00:57 19.1 °C 13.3 °C 1013.8 hPa Calm     69 % 0.0 mm
01:07 18.9 °C 13.3 °C 1014.1 hPa Calm     70 % 0.0 mm
01:12 18.9 °C 13.3 °C 1014.1 hPa Calm     70 % 0.0 mm
01:22 18.8 °C 13.2 °C 1014.1 hPa Calm   3.2 km/h 70 % 0.0 mm
01:27 18.7 °C 13.1 °C 1014.4 hPa SSW 1.6 km/h 3.2 km/h 70 % 0.0 mm
01:32 18.6 °C 13.2 °C 1014.4 hPa Calm   3.2 km/h 71 % 0.0 mm
01:37 18.4 °C 13.3 °C 1014.1 hPa Calm   1.6 km/h 72 % 0.0 mm
01:42 18.4 °C 13.3 °C 1014.1 hPa Calm   3.2 km/h 72 % 0.0 mm
01:47 18.4 °C 13.5 °C 1014.1 hPa Calm   3.2 km/h 73 % 0.0 mm
01:52 18.4 °C 13.5 °C 1014.1 hPa Calm   3.2 km/h 73 % 0.0 mm
01:57 18.4 °C 13.5 °C 1014.1 hPa Calm     73 % 0.0 mm
02:02 18.4 °C 13.7 °C 1014.1 hPa Calm     74 % 0.0 mm
02:07 18.5 °C 13.8 °C 1014.1 hPa Calm     74 % 0.0 mm
02:12 18.4 °C 13.7 °C 1014.1 hPa Calm     74 % 0.0 mm
02:17 18.5 °C 14.2 °C 1014.4 hPa Calm   1.6 km/h 76 % 0.0 mm
02:22 18.7 °C 14.4 °C 1014.1 hPa Calm   1.6 km/h 76 % 0.0 mm
02:27 18.8 °C 14.3 °C 1014.1 hPa Calm   1.6 km/h 75 % 0.0 mm
02:32 18.8 °C 14.5 °C 1014.1 hPa Calm     76 % 0.0 mm
02:37 18.8 °C 14.3 °C 1014.1 hPa Calm     75 % 0.0 mm
02:42 18.7 °C 14.2 °C 1013.8 hPa Calm     75 % 0.0 mm
02:47 18.5 °C 13.8 °C 1013.8 hPa ESE 1.6 km/h   74 % 0.0 mm
02:52 18.3 °C 13.4 °C 1013.8 hPa SE 1.6 km/h 1.6 km/h 73 % 0.0 mm
03:02 17.9 °C 13.2 °C 1013.8 hPa Calm   4.8 km/h 74 % 0.0 mm
03:07 17.8 °C 13.3 °C 1013.8 hPa Calm   4.8 km/h 75 % 0.0 mm
03:12 17.7 °C 13.2 °C 1013.8 hPa Calm   3.2 km/h 75 % 0.0 mm
03:17 17.6 °C 13.3 °C 1013.8 hPa Calm   1.6 km/h 76 % 0.0 mm
03:22 17.6 °C 13.5 °C 1013.8 hPa Calm   1.6 km/h 77 % 0.0 mm
03:27 17.6 °C 13.5 °C 1013.8 hPa Calm   1.6 km/h 77 % 0.0 mm
03:32 17.6 °C 13.5 °C 1013.8 hPa SE 1.6 km/h 1.6 km/h 77 % 0.0 mm
03:37 17.4 °C 13.5 °C 1013.8 hPa Calm   1.6 km/h 78 % 0.0 mm
03:42 17.3 °C 13.2 °C 1013.8 hPa Calm   3.2 km/h 77 % 0.0 mm
03:47 17.3 °C 13.4 °C 1013.8 hPa Calm   3.2 km/h 78 % 0.0 mm
03:52 17.3 °C 13.4 °C 1013.8 hPa Calm   3.2 km/h 78 % 0.0 mm
03:57 17.3 °C 13.4 °C 1013.8 hPa SW 1.6 km/h 3.2 km/h 78 % 0.0 mm
04:02 17.3 °C 13.6 °C 1013.8 hPa Calm   3.2 km/h 79 % 0.0 mm
04:07 17.3 °C 13.6 °C 1013.8 hPa Calm   3.2 km/h 79 % 0.0 mm
04:12 17.3 °C 13.6 °C 1013.8 hPa Calm   1.6 km/h 79 % 0.0 mm
04:17 17.3 °C 13.6 °C 1013.8 hPa SSW 1.6 km/h 1.6 km/h 79 % 0.0 mm
04:22 17.3 °C 13.6 °C 1013.8 hPa Calm   1.6 km/h 79 % 0.0 mm
04:27 17.2 °C 13.7 °C 1013.8 hPa Calm   1.6 km/h 80 % 0.0 mm
04:32 17.2 °C 13.7 °C 1013.8 hPa Calm   1.6 km/h 80 % 0.0 mm
04:37 17.3 °C 14.0 °C 1013.8 hPa Calm   1.6 km/h 81 % 0.0 mm
04:42 17.4 °C 14.1 °C 1013.8 hPa Calm   1.6 km/h 81 % 0.0 mm
04:47 17.6 °C 14.1 °C 1014.1 hPa Calm   3.2 km/h 80 % 0.0 mm
04:57 17.7 °C 14.0 °C 1013.8 hPa Calm   6.4 km/h 79 % 0.0 mm
05:02 17.6 °C 14.1 °C 1013.4 hPa South 3.2 km/h 4.8 km/h 80 % 0.0 mm
05:12 17.5 °C 14.0 °C 1013.4 hPa SSW 1.6 km/h 6.4 km/h 80 % 0.0 mm
05:17 17.6 °C 14.1 °C 1013.4 hPa SSW 1.6 km/h 6.4 km/h 80 % 0.0 mm
05:22 17.5 °C 14.0 °C 1013.4 hPa SW 1.6 km/h 4.8 km/h 80 % 0.0 mm
05:32 17.4 °C 13.9 °C 1013.4 hPa SW 1.6 km/h 4.8 km/h 80 % 0.0 mm
05:37 17.5 °C 14.2 °C 1013.4 hPa SSW 1.6 km/h 4.8 km/h 81 % 0.0 mm
05:42 17.4 °C 14.1 °C 1013.4 hPa West 3.2 km/h 6.4 km/h 81 % 0.0 mm
05:47 17.4 °C 14.3 °C 1013.4 hPa West 4.8 km/h 8.0 km/h 82 % 0.0 mm
05:52 17.4 °C 14.3 °C 1013.8 hPa West 1.6 km/h 8.0 km/h 82 % 0.0 mm
05:57 17.3 °C 14.2 °C 1013.8 hPa WSW 3.2 km/h 8.0 km/h 82 % 0.0 mm
06:02 17.4 °C 14.5 °C 1013.4 hPa SW 1.6 km/h 8.0 km/h 83 % 0.0 mm
06:12 17.4 °C 14.5 °C 1013.4 hPa Calm   12.9 km/h 83 % 0.0 mm
06:17 17.4 °C 14.3 °C 1013.8 hPa SW 3.2 km/h 12.9 km/h 82 % 0.0 mm
06:22 17.3 °C 14.4 °C 1013.4 hPa SW 1.6 km/h 8.0 km/h 83 % 0.0 mm
06:32 17.2 °C 14.5 °C 1013.4 hPa SSW 3.2 km/h 8.0 km/h 84 % 0.0 mm
06:37 17.1 °C 14.6 °C 1013.4 hPa SSW 3.2 km/h 8.0 km/h 85 % 0.0 mm
06:42 17.0 °C 14.5 °C 1013.4 hPa SW 1.6 km/h 8.0 km/h 85 % 0.0 mm
06:47 16.9 °C 14.5 °C 1013.4 hPa Calm   8.0 km/h 86 % 0.0 mm
06:52 16.8 °C 14.4 °C 1013.4 hPa SW 3.2 km/h 4.8 km/h 86 % 0.0 mm
06:57 16.8 °C 14.4 °C 1013.4 hPa Calm   4.8 km/h 86 % 0.0 mm
07:02 16.7 °C 14.5 °C 1013.4 hPa WSW 4.8 km/h 4.8 km/h 87 % 0.0 mm
07:12 16.7 °C 14.5 °C 1013.4 hPa Calm   4.8 km/h 87 % 0.0 mm
07:17 16.7 °C 14.7 °C 1013.1 hPa East 1.6 km/h 4.8 km/h 88 % 0.0 mm
07:22 16.7 °C 14.7 °C 1013.4 hPa Calm   3.2 km/h 88 % 0.0 mm
07:27 16.6 °C 14.6 °C 1013.1 hPa SE 1.6 km/h 1.6 km/h 88 % 0.0 mm
07:32 16.6 °C 14.6 °C 1013.1 hPa Calm   1.6 km/h 88 % 0.0 mm
07:37 16.5 °C 14.7 °C 1013.4 hPa South 1.6 km/h 3.2 km/h 89 % 0.0 mm
07:42 16.4 °C 14.6 °C 1013.4 hPa Calm   3.2 km/h 89 % 0.0 mm
07:52 16.4 °C 14.6 °C 1013.8 hPa SW 1.6 km/h 1.6 km/h 89 % 0.0 mm
07:57 16.5 °C 14.7 °C 1013.8 hPa Calm   3.2 km/h 89 % 0.0 mm
08:02 16.6 °C 14.8 °C 1013.8 hPa Calm   3.2 km/h 89 % 0.0 mm
08:07 16.7 °C 14.9 °C 1013.4 hPa Calm   3.2 km/h 89 % 0.0 mm
08:12 16.7 °C 14.9 °C 1013.4 hPa Calm   1.6 km/h 89 % 0.0 mm
08:17 16.7 °C 14.9 °C 1013.1 hPa Calm   1.6 km/h 89 % 0.0 mm
08:22 16.8 °C 15.0 °C 1013.1 hPa Calm   4.8 km/h 89 % 0.0 mm
08:32 17.0 °C 15.0 °C 1013.4 hPa Calm   1.6 km/h 88 % 0.0 mm
08:42 17.2 °C 15.2 °C 1013.8 hPa SW 3.2 km/h 3.2 km/h 88 % 0.0 mm
08:52 17.4 °C 15.4 °C 1013.4 hPa SW 1.6 km/h 4.8 km/h 88 % 0.0 mm
08:57 17.6 °C 15.6 °C 1013.8 hPa West 3.2 km/h 4.8 km/h 88 % 0.0 mm
09:02 17.9 °C 15.7 °C 1013.8 hPa WSW 6.4 km/h 9.7 km/h 87 % 0.0 mm
09:07 18.1 °C 15.9 °C 1013.8 hPa Calm   11.3 km/h 87 % 0.0 mm
09:12 18.3 °C 15.9 °C 1013.8 hPa WNW 1.6 km/h 11.3 km/h 86 % 0.0 mm
09:17 18.4 °C 15.8 °C 1013.8 hPa WSW 1.6 km/h 11.3 km/h 85 % 0.0 mm
09:22 18.5 °C 15.9 °C 1013.8 hPa WNW 4.8 km/h 8.0 km/h 85 % 0.0 mm
09:27 18.7 °C 16.1 °C 1014.1 hPa WNW 3.2 km/h 8.0 km/h 85 % 0.0 mm
09:32 18.8 °C 16.0 °C 1013.8 hPa WNW 4.8 km/h 12.9 km/h 84 % 0.0 mm
09:42 18.6 °C 16.0 °C 1013.8 hPa WNW 4.8 km/h 12.9 km/h 85 % 0.0 mm
09:47 18.6 °C 16.2 °C 1014.1 hPa WNW 9.7 km/h 17.7 km/h 86 % 0.0 mm
09:52 18.3 °C 16.3 °C 1014.1 hPa WNW 4.8 km/h 17.7 km/h 88 % 0.0 mm
09:57 17.9 °C 16.2 °C 1014.1 hPa WNW 1.6 km/h 12.9 km/h 90 % 0.0 mm
10:02 17.8 °C 16.3 °C 1014.1 hPa Calm   12.9 km/h 91 % 0.0 mm
10:12 17.7 °C 16.4 °C 1013.8 hPa North 1.6 km/h 4.8 km/h 92 % 0.3 mm
10:17 17.7 °C 16.4 °C 1014.1 hPa Calm   3.2 km/h 92 % 0.3 mm
10:22 17.6 °C 16.3 °C 1014.1 hPa Calm   3.2 km/h 92 % 0.3 mm
10:27 17.7 °C 16.6 °C 1014.1 hPa Calm   3.2 km/h 93 % 0.3 mm
10:32 17.7 °C 16.6 °C 1013.8 hPa ENE 3.2 km/h 3.2 km/h 93 % 0.3 mm
10:42 17.7 °C 16.6 °C 1013.8 hPa NNW 1.6 km/h 4.8 km/h 93 % 0.3 mm
10:47 17.7 °C 16.6 °C 1013.8 hPa Calm   4.8 km/h 93 % 0.3 mm
10:52 17.7 °C 16.6 °C 1013.8 hPa Calm   1.6 km/h 93 % 0.3 mm
10:57 17.7 °C 16.4 °C 1013.8 hPa Calm   1.6 km/h 92 % 0.3 mm
11:02 17.7 °C 16.4 °C 1013.8 hPa Calm     92 % 0.0 mm
11:12 17.9 °C 16.6 °C 1013.8 hPa Calm     92 % 0.0 mm
11:17 17.9 °C 16.4 °C 1014.1 hPa Calm     91 % 0.0 mm
11:22 17.9 °C 16.4 °C 1013.8 hPa Calm     91 % 0.0 mm
11:32 17.9 °C 16.4 °C 1013.8 hPa Calm     91 % 0.0 mm
11:42 18.1 °C 16.6 °C 1013.8 hPa Calm     91 % 0.0 mm
11:47 18.1 °C 16.8 °C 1013.8 hPa Calm   3.2 km/h 92 % 0.0 mm
11:52 18.1 °C 16.6 °C 1014.1 hPa Calm   3.2 km/h 91 % 0.0 mm
11:57 18.1 °C 16.6 °C 1014.1 hPa Calm   3.2 km/h 91 % 0.0 mm
12:02 18.1 °C 16.6 °C 1014.4 hPa WNW 1.6 km/h 3.2 km/h 91 % 0.0 mm
12:07 18.1 °C 16.6 °C 1014.1 hPa Calm   3.2 km/h 91 % 0.0 mm
12:12 18.2 °C 16.7 °C 1013.8 hPa Calm   3.2 km/h 91 % 0.0 mm
12:17 18.3 °C 16.6 °C 1013.8 hPa Calm   3.2 km/h 90 % 0.0 mm
12:22 18.4 °C 16.6 °C 1013.8 hPa WNW 1.6 km/h   89 % 0.0 mm
12:32 18.5 °C 16.5 °C 1013.8 hPa Calm   1.6 km/h 88 % 0.0 mm
12:37 18.6 °C 16.6 °C 1013.8 hPa Calm   1.6 km/h 88 % 0.0 mm
12:42 18.8 °C 16.6 °C 1013.8 hPa Calm   1.6 km/h 87 % 0.0 mm
12:47 18.8 °C 16.6 °C 1013.4 hPa NNW 1.6 km/h 1.6 km/h 87 % 0.0 mm
12:52 18.9 °C 16.7 °C 1013.8 hPa WNW 1.6 km/h 3.2 km/h 87 % 0.0 mm
12:57 18.9 °C 16.7 °C 1013.8 hPa NNW 1.6 km/h 3.2 km/h 87 % 0.0 mm
13:02 18.9 °C 16.5 °C 1013.8 hPa Calm   3.2 km/h 86 % 0.0 mm
13:07 19.0 °C 16.8 °C 1013.8 hPa West 1.6 km/h 3.2 km/h 87 % 0.0 mm
13:12 19.2 °C 16.6 °C 1013.8 hPa Calm   3.2 km/h 85 % 0.0 mm
13:17 19.1 °C 16.3 °C 1014.1 hPa Calm   1.6 km/h 84 % 0.0 mm
13:22 19.1 °C 16.3 °C 1014.1 hPa Calm   3.2 km/h 84 % 0.0 mm
13:27 19.0 °C 16.0 °C 1013.8 hPa Calm   3.2 km/h 83 % 0.0 mm
13:32 19.1 °C 16.3 °C 1013.8 hPa WNW 1.6 km/h 6.4 km/h 84 % 0.0 mm
13:37 19.1 °C 16.1 °C 1013.8 hPa Calm   6.4 km/h 83 % 0.0 mm
13:42 19.0 °C 16.2 °C 1013.8 hPa Calm   6.4 km/h 84 % 0.0 mm
13:47 19.1 °C 16.3 °C 1013.4 hPa Calm   3.2 km/h 84 % 0.0 mm
13:52 19.1 °C 16.3 °C 1013.8 hPa Calm   1.6 km/h 84 % 0.0 mm
13:57 19.0 °C 16.2 °C 1013.8 hPa SSW 1.6 km/h 3.2 km/h 84 % 0.0 mm
14:02 19.0 °C 16.4 °C 1013.8 hPa WSW 1.6 km/h 3.2 km/h 85 % 0.0 mm
14:07 18.9 °C 16.1 °C 1013.4 hPa Calm   3.2 km/h 84 % 0.0 mm
14:12 18.9 °C 16.1 °C 1013.8 hPa Calm   3.2 km/h 84 % 0.0 mm
14:17 18.9 °C 16.3 °C 1013.4 hPa Calm   3.2 km/h 85 % 0.0 mm
14:22 18.8 °C 16.0 °C 1013.4 hPa Calm   1.6 km/h 84 % 0.3 mm
14:27 18.8 °C 16.2 °C 1013.4 hPa Calm   1.6 km/h 85 % 0.5 mm
14:32 18.9 °C 16.7 °C 1013.4 hPa ENE 1.6 km/h 1.6 km/h 87 % 0.5 mm
14:37 18.8 °C 16.8 °C 1013.4 hPa SE 1.6 km/h 3.2 km/h 88 % 0.5 mm
14:42 18.8 °C 16.9 °C 1013.4 hPa Calm   6.4 km/h 89 % 0.5 mm
14:47 18.7 °C 17.0 °C 1013.8 hPa SSE 1.6 km/h 6.4 km/h 90 % 0.5 mm
14:52 18.6 °C 16.9 °C 1013.8 hPa SE 1.6 km/h 6.4 km/h 90 % 0.5 mm
14:57 18.6 °C 16.9 °C 1013.4 hPa Calm   4.8 km/h 90 % 0.5 mm
15:02 18.4 °C 16.7 °C 1013.8 hPa Calm   4.8 km/h 90 % 0.8 mm
15:07 18.5 °C 17.0 °C 1013.8 hPa Calm   3.2 km/h 91 % 0.8 mm
15:12 18.5 °C 17.0 °C 1013.4 hPa Calm   3.2 km/h 91 % 1.0 mm
15:17 18.6 °C 17.1 °C 1013.8 hPa Calm   3.2 km/h 91 % 0.8 mm
15:22 18.5 °C 17.0 °C 1013.4 hPa Calm   3.2 km/h 91 % 0.8 mm
15:27 18.4 °C 16.6 °C 1013.4 hPa SW 4.8 km/h 4.8 km/h 89 % 0.5 mm
15:32 18.3 °C 16.6 °C 1013.8 hPa SSW 4.8 km/h 8.0 km/h 90 % 0.5 mm
15:37 18.3 °C 16.6 °C 1013.4 hPa SW 3.2 km/h 8.0 km/h 90 % 0.8 mm
15:42 18.3 °C 16.6 °C 1013.4 hPa SSW 1.6 km/h 8.0 km/h 90 % 0.8 mm
15:47 18.4 °C 16.7 °C 1013.1 hPa SSE 1.6 km/h 6.4 km/h 90 % 0.8 mm
15:52 18.4 °C 16.7 °C 1013.1 hPa Calm   3.2 km/h 90 % 0.8 mm
15:57 18.4 °C 16.7 °C 1013.1 hPa ESE 1.6 km/h 3.2 km/h 90 % 0.5 mm
16:02 18.4 °C 16.9 °C 1013.1 hPa Calm   6.4 km/h 91 % 0.5 mm
16:12 18.4 °C 16.9 °C 1013.1 hPa SE 1.6 km/h 6.4 km/h 91 % 0.3 mm
16:17 18.3 °C 16.8 °C 1013.1 hPa East 4.8 km/h 8.0 km/h 91 % 0.3 mm
16:22 18.3 °C 16.8 °C 1013.1 hPa SSE 1.6 km/h 8.0 km/h 91 % 0.3 mm
16:27 18.4 °C 17.1 °C 1012.8 hPa Calm   8.0 km/h 92 % 0.3 mm
16:32 18.6 °C 17.3 °C 1013.1 hPa SE 1.6 km/h 6.4 km/h 92 % 0.0 mm
16:37 18.7 °C 17.4 °C 1013.1 hPa Calm   4.8 km/h 92 % 0.0 mm
16:42 18.5 °C 16.8 °C 1013.1 hPa Calm   4.8 km/h 90 % 0.0 mm
16:47 18.5 °C 17.0 °C 1013.4 hPa Calm   1.6 km/h 91 % 0.0 mm
16:52 18.6 °C 17.1 °C 1013.4 hPa Calm   1.6 km/h 91 % 0.0 mm
16:57 18.5 °C 16.8 °C 1013.4 hPa Calm   1.6 km/h 90 % 0.0 mm
17:02 18.6 °C 16.9 °C 1013.4 hPa Calm     90 % 0.0 mm
17:07 18.6 °C 16.9 °C 1013.1 hPa Calm     90 % 0.0 mm
17:12 18.6 °C 16.9 °C 1013.4 hPa Calm     90 % 0.0 mm
17:17 18.6 °C 16.8 °C 1013.8 hPa WNW 4.8 km/h 4.8 km/h 89 % 0.0 mm
17:22 18.4 °C 15.6 °C 1013.8 hPa Calm   6.4 km/h 84 % 0.0 mm
17:32 18.4 °C 15.6 °C 1013.8 hPa West 3.2 km/h 6.4 km/h 84 % 0.0 mm
17:37 18.3 °C 15.9 °C 1013.8 hPa Calm   9.7 km/h 86 % 0.0 mm
17:42 18.1 °C 15.9 °C 1013.8 hPa WNW 1.6 km/h 9.7 km/h 87 % 0.3 mm
17:47 18.0 °C 16.0 °C 1013.8 hPa WNW 3.2 km/h 9.7 km/h 88 % 0.3 mm
17:52 17.9 °C 15.9 °C 1013.8 hPa NW 1.6 km/h 8.0 km/h 88 % 0.3 mm
17:57 17.9 °C 16.1 °C 1013.8 hPa WNW 6.4 km/h 8.0 km/h 89 % 0.3 mm
18:02 17.8 °C 16.3 °C 1013.8 hPa West 1.6 km/h 9.7 km/h 91 % 0.5 mm
18:07 17.4 °C 15.7 °C 1013.8 hPa WNW 4.8 km/h 9.7 km/h 90 % 0.5 mm
18:12 17.1 °C 15.4 °C 1013.8 hPa SW 8.0 km/h 9.7 km/h 90 % 0.5 mm
18:17 16.8 °C 15.1 °C 1013.8 hPa SW 8.0 km/h 11.3 km/h 90 % 0.5 mm
18:22 16.6 °C 15.0 °C 1014.1 hPa WSW 12.9 km/h 16.1 km/h 90 % 0.5 mm
18:27 16.3 °C 14.8 °C 1014.1 hPa WSW 9.7 km/h 17.7 km/h 91 % 0.5 mm
18:32 16.0 °C 14.5 °C 1014.1 hPa SW 6.4 km/h 17.7 km/h 91 % 0.5 mm
18:37 15.9 °C 14.6 °C 1014.1 hPa SW 3.2 km/h 17.7 km/h 92 % 0.8 mm
18:42 15.8 °C 14.7 °C 1014.1 hPa SSW 11.3 km/h 12.9 km/h 93 % 0.5 mm
18:47 15.7 °C 14.6 °C 1014.4 hPa WSW 9.7 km/h 14.5 km/h 93 % 0.5 mm
18:52 15.8 °C 14.7 °C 1014.4 hPa SW 4.8 km/h 14.5 km/h 93 % 0.5 mm
19:02 15.8 °C 14.7 °C 1014.4 hPa SW 6.4 km/h 12.9 km/h 93 % 0.5 mm
19:07 15.8 °C 14.7 °C 1014.4 hPa SW 1.6 km/h 9.7 km/h 93 % 0.3 mm
19:12 15.9 °C 14.8 °C 1014.4 hPa SW 3.2 km/h 9.7 km/h 93 % 0.3 mm
19:17 16.0 °C 14.9 °C 1014.4 hPa Calm   9.7 km/h 93 % 0.3 mm
19:22 15.9 °C 14.8 °C 1014.1 hPa West 3.2 km/h 6.4 km/h 93 % 0.3 mm
19:27 16.0 °C 14.9 °C 1014.1 hPa WSW 1.6 km/h 4.8 km/h 93 % 0.3 mm
19:32 16.0 °C 14.9 °C 1014.1 hPa Calm   4.8 km/h 93 % 0.0 mm
19:37 16.1 °C 15.0 °C 1014.1 hPa Calm   4.8 km/h 93 % 0.0 mm
19:42 16.2 °C 15.1 °C 1014.4 hPa Calm   3.2 km/h 93 % 0.0 mm
19:47 16.6 °C 15.6 °C 1014.4 hPa WSW 1.6 km/h 3.2 km/h 94 % 0.0 mm
19:52 17.0 °C 15.7 °C 1014.4 hPa Calm   4.8 km/h 92 % 0.0 mm
19:57 17.2 °C 15.7 °C 1014.4 hPa WNW 4.8 km/h 6.4 km/h 91 % 0.0 mm
20:02 17.4 °C 15.9 °C 1014.4 hPa WNW 1.6 km/h 8.0 km/h 91 % 0.0 mm
20:07 17.7 °C 16.2 °C 1014.4 hPa Calm   8.0 km/h 91 % 0.0 mm
20:12 18.3 °C 16.5 °C 1014.4 hPa Calm   8.0 km/h 89 % 0.0 mm
20:17 18.4 °C 16.2 °C 1014.8 hPa SW 1.6 km/h 3.2 km/h 87 % 0.0 mm
20:22 18.1 °C 16.1 °C 1014.8 hPa Calm   3.2 km/h 88 % 0.0 mm
20:27 17.9 °C 16.1 °C 1014.8 hPa Calm   3.2 km/h 89 % 0.0 mm
20:32 17.8 °C 16.1 °C 1014.8 hPa Calm   3.2 km/h 90 % 0.0 mm
20:42 17.6 °C 15.8 °C 1014.8 hPa WNW 1.6 km/h 1.6 km/h 89 % 0.0 mm
20:47 17.6 °C 15.6 °C 1014.8 hPa Calm   6.4 km/h 88 % 0.0 mm
20:57 17.6 °C 15.6 °C 1015.1 hPa Calm   6.4 km/h 88 % 0.0 mm
21:02 17.4 °C 15.4 °C 1015.1 hPa Calm   3.2 km/h 88 % 0.0 mm
21:07 17.2 °C 15.4 °C 1015.1 hPa Calm   1.6 km/h 89 % 0.0 mm
21:12 17.1 °C 15.4 °C 1015.1 hPa Calm   1.6 km/h 90 % 0.0 mm
21:17 17.1 °C 15.4 °C 1015.1 hPa Calm   1.6 km/h 90 % 0.0 mm
21:22 16.9 °C 15.4 °C 1015.1 hPa Calm     91 % 0.0 mm
21:27 16.9 °C 15.2 °C 1015.1 hPa Calm     90 % 0.0 mm
21:32 16.8 °C 15.1 °C 1015.1 hPa Calm     90 % 0.0 mm
21:37 16.8 °C 15.1 °C 1015.1 hPa Calm     90 % 0.0 mm
21:42 16.7 °C 15.2 °C 1015.1 hPa Calm     91 % 0.0 mm
21:47 16.6 °C 15.3 °C 1015.5 hPa Calm     92 % 0.0 mm
21:52 16.4 °C 14.9 °C 1015.5 hPa Calm     91 % 0.0 mm
21:57 16.3 °C 14.8 °C 1015.5 hPa Calm     91 % 0.0 mm
22:02 16.3 °C 14.8 °C 1015.5 hPa Calm     91 % 0.0 mm
22:07 16.4 °C 14.9 °C 1015.5 hPa Calm   3.2 km/h 91 % 0.0 mm
22:12 16.4 °C 14.9 °C 1015.8 hPa Calm   3.2 km/h 91 % 0.0 mm
22:17 16.3 °C 14.8 °C 1015.8 hPa Calm   3.2 km/h 91 % 0.0 mm
22:22 16.4 °C 14.9 °C 1015.8 hPa Calm   4.8 km/h 91 % 0.0 mm
22:27 16.4 °C 14.8 °C 1015.8 hPa WNW 1.6 km/h 4.8 km/h 90 % 0.0 mm
22:32 16.4 °C 14.8 °C 1015.8 hPa Calm   4.8 km/h 90 % 0.0 mm
22:37 16.3 °C 14.8 °C 1015.8 hPa Calm   3.2 km/h 91 % 0.0 mm
22:42 16.3 °C 14.8 °C 1016.1 hPa Calm   3.2 km/h 91 % 0.0 mm
22:52 16.2 °C 14.7 °C 1016.1 hPa Calm   3.2 km/h 91 % 0.0 mm
22:57 16.2 °C 14.9 °C 1016.1 hPa Calm   3.2 km/h 92 % 0.0 mm
23:02 16.2 °C 14.9 °C 1015.8 hPa Calm   1.6 km/h 92 % 0.0 mm
23:12 16.2 °C 15.1 °C 1016.1 hPa Calm   1.6 km/h 93 % 0.0 mm
23:17 16.0 °C 14.9 °C 1016.1 hPa Calm   1.6 km/h 93 % 0.0 mm
23:22 15.9 °C 14.8 °C 1016.5 hPa WSW 1.6 km/h 1.6 km/h 93 % 0.0 mm
23:27 15.9 °C 14.8 °C 1016.5 hPa WSW 3.2 km/h 3.2 km/h 93 % 0.0 mm
23:32 15.9 °C 14.8 °C 1016.5 hPa SW 1.6 km/h 4.8 km/h 93 % 0.0 mm
23:37 15.9 °C 14.8 °C 1016.5 hPa WSW 3.2 km/h 4.8 km/h 93 % 0.0 mm
23:42 15.9 °C 14.8 °C 1016.8 hPa WSW 3.2 km/h 4.8 km/h 93 % 0.0 mm
23:52 15.9 °C 14.8 °C 1016.5 hPa Calm   4.8 km/h 93 % 0.0 mm
Meteo18
Compliments of Weather Underground - 4 mb

Script developed by  Jim McMurry - jmcmurry@mwt.net Adapted for the template by  Wim van der Kuil - Leuven-Template.eu

You find our weather info also at:

European Weather Network

Weather Underground

Equipment we use:

Weather-station
Davis Vue

Weather-program
Meteohub

Weather-server
Raspberry PI 2 B+

Provider
1 and 1

Davis Vue

Meteohub

Raspberry PI 2 B+

1 and 1